UNNT/OVB METAR and TAF weather

Enter ICAO airport designator
Station Type Date Time Source
UNNT METAR 2019/06/17 07:00 UTC NOAA

UNNT 170700Z 22006G11MPS 9999 SCT046CB 20/09 Q1010 R25/090070 R16/090070 NOSIG RMK QFE747/0996


Station Type Date Time Source
UNNT Decoded METAR 2019/06/17 07:00 UTC NOAA

Station name not available
Jun 17, 2019 - 03:00 AM EDT / 2019.06.17 0700 UTC
Wind: from the SW (220 degrees) at 13 MPH (12 KT) gusting to 25 MPH (21 KT):0
Visibility: greater than 7 mile(s):0
Sky conditions: partly cloudy
Weather: Cumulonimbus clouds observed
Temperature: 68 F (20 C)
Dew Point: 48 F (9 C)
Relative Humidity: 49%
Pressure (altimeter): 29.83 in. Hg (1010 hPa)
ob: UNNT 170700Z 22006G11MPS 9999 SCT046CB 20/09 Q1010 R25/090070 R16/090070 NOSIG RMK QFE747/0996
cycle: 7

Station Type Date Time Source
UNNT TAF 2019/06/17 06:52 UTC NOAA

TAF
AMD UNNT 170649Z 1706/1806 22007G14MPS 9999 BKN040CB
TEMPO 1706/1714 17003G08MPS 3100 -TSRA BKN011CB
BECMG 1714/1715 16003G08MPS

Example: see airport list